Sao Vicente, Brazil
Current Conditions -  °F | °C
As of 3:00 AM on Wednesday 22 Oct 2014 (Local Time) from SBKG Reporting Station
Broken Clouds Broken Clouds  
Wind Chill: 70°   Ceiling: 700
Heat Index: 70°   Visibility: 6mi
Dew Point: 68°   Wind: 7mph
Humidity: 94%   Direction: 140°SE
Pressure: 29.06"   Gusts: NA
Location:  6.22°S, 36.68°W
Report Text: SBKG 220600Z 14006KT 9999 BKN007 21/20 Q0984
Loading
Personal Weather Stations






























Interactive Weather Map
Tropical Storm Tracking
New forecast layout! Learn more

10-Day Weather Forecast

Advertisements
Track Severe Weather on mobile